createdAt,value
2019-01-11T00:03:57.451Z,101672.09
2019-01-11T00:09:03.002Z,101676.95
2019-01-11T00:14:08.625Z,101674.62
2019-01-11T00:19:18.322Z,101677.66
2019-01-11T00:24:23.955Z,101678.99
2019-01-11T00:29:31.549Z,101671.86
2019-01-11T00:34:37.160Z,101675.43
2019-01-11T00:39:42.685Z,101680.75
2019-01-11T00:44:48.165Z,101677.63
2019-01-11T00:49:53.515Z,101680.75
2019-01-11T00:55:01.050Z,101674.89
2019-01-11T01:00:10.055Z,101682.40
2019-01-11T01:05:15.746Z,101674.25
2019-01-11T01:10:22.806Z,101679.14
2019-01-11T01:15:28.610Z,101675.02
2019-01-11T01:20:36.661Z,101673.73
2019-01-11T01:25:42.230Z,101680.00
2019-01-11T01:30:47.737Z,101682.73
2019-01-11T01:35:53.190Z,101682.83
2019-01-11T01:40:58.615Z,101674.46
2019-01-11T01:46:04.205Z,101677.66
2019-01-11T01:56:27.670Z,101678.13
2019-01-11T02:01:33.310Z,101680.38
2019-01-11T02:06:40.955Z,101677.75
2019-01-11T02:11:48.969Z,101678.61
2019-01-11T02:16:56.689Z,101681.35
2019-01-11T02:22:02.121Z,101687.97
2019-01-11T02:27:07.939Z,101683.55
2019-01-11T02:32:13.469Z,101683.14
2019-01-11T02:37:19.029Z,101689.86
2019-01-11T02:42:24.611Z,101692.03
2019-01-11T02:47:30.105Z,101695.16
2019-01-11T02:52:35.760Z,101692.47
2019-01-11T02:57:43.589Z,101693.80
2019-01-11T03:02:49.173Z,101688.88
2019-01-11T03:07:56.922Z,101695.03
2019-01-11T03:13:02.354Z,101689.27
2019-01-11T03:18:09.987Z,101690.17
2019-01-11T03:23:15.582Z,101686.60
2019-01-11T03:28:21.006Z,101699.50
2019-01-11T03:33:29.205Z,101699.45
2019-01-11T03:38:34.645Z,101687.03
2019-01-11T03:43:40.060Z,101696.49
2019-01-11T03:48:47.589Z,101698.25
2019-01-11T03:53:53.064Z,101692.00
2019-01-11T03:58:58.688Z,101679.16
2019-01-11T04:04:04.356Z,101682.71
2019-01-11T04:09:11.616Z,101678.28
2019-01-11T04:14:16.994Z,101679.64
2019-01-11T04:19:22.588Z,101674.34
2019-01-11T04:24:29.691Z,101670.37
2019-01-11T04:29:35.146Z,101666.81
2019-01-11T04:34:40.630Z,101668.09
2019-01-11T04:39:48.269Z,101671.63
2019-01-11T04:44:55.948Z,101660.11
2019-01-11T04:50:01.483Z,101653.45
2019-01-11T04:55:11.868Z,101648.53
2019-01-11T05:00:20.591Z,101649.39
2019-01-11T05:05:26.674Z,101644.53
2019-01-11T05:10:34.335Z,101636.11
2019-01-11T05:15:44.070Z,101636.55
2019-01-11T05:21:13.374Z,101637.02
2019-01-11T05:26:18.765Z,101634.74
2019-01-11T05:31:26.250Z,101639.64
2019-01-11T05:36:35.746Z,101640.97
2019-01-11T05:41:43.502Z,101640.53
2019-01-11T05:46:49.013Z,101640.07
2019-01-11T05:51:56.634Z,101642.30
2019-01-11T05:57:02.164Z,101648.48
2019-01-11T06:02:07.721Z,101648.95
2019-01-11T06:07:25.839Z,101650.72
2019-01-11T06:12:31.395Z,101647.13
2019-01-11T06:17:39.340Z,101640.02
2019-01-11T06:22:44.802Z,101647.12
2019-01-11T06:27:52.355Z,101656.48
2019-01-11T06:32:57.934Z,101655.54
2019-01-11T06:38:03.474Z,101655.11
2019-01-11T06:43:09.011Z,101653.30
2019-01-11T06:48:27.274Z,101662.16
2019-01-11T06:53:36.844Z,101661.25
2019-01-11T06:58:44.499Z,101664.34
2019-01-11T07:03:49.965Z,101668.77
2019-01-11T07:08:57.580Z,101674.52
2019-01-11T07:14:03.024Z,101674.95
2019-01-11T07:19:08.649Z,101674.47
2019-01-11T07:24:14.144Z,101683.73
2019-01-11T07:29:23.924Z,101685.02
2019-01-11T07:34:35.839Z,101691.67
2019-01-11T07:39:41.449Z,101689.48
2019-01-11T07:44:44.276Z,101690.77
2019-01-11T07:49:49.030Z,101695.62
2019-01-11T07:54:51.801Z,101694.34
2019-01-11T07:59:58.687Z,101701.86
2019-01-11T08:05:01.280Z,101704.09
2019-01-11T08:10:07.434Z,101706.35
2019-01-11T08:15:10.487Z,101703.67
2019-01-11T08:20:13.461Z,101709.01
2019-01-11T08:25:16.788Z,101700.98
2019-01-11T08:30:21.448Z,101708.55
2019-01-11T08:35:24.324Z,101709.86
2019-01-11T08:40:29.094Z,101716.95
2019-01-11T08:45:31.884Z,101713.89
2019-01-11T08:50:40.834Z,101718.31
2019-01-11T08:55:43.634Z,101724.92
2019-01-11T09:00:46.403Z,101722.30
2019-01-11T09:05:51.544Z,101728.07
2019-01-11T09:10:58.285Z,101724.91
2019-01-11T09:16:03.065Z,101724.50
2019-01-11T09:21:11.378Z,101732.52
2019-01-11T09:26:16.228Z,101727.58
2019-01-11T09:31:19.748Z,101739.59
2019-01-11T09:36:22.524Z,101737.78
2019-01-11T09:41:25.208Z,101740.91
2019-01-11T09:46:28.165Z,101744.92
2019-01-11T09:51:35.114Z,101750.69
2019-01-11T09:56:39.983Z,101749.72
2019-01-11T10:01:46.581Z,101766.19
2019-01-11T10:07:01.379Z,101764.01
2019-01-11T10:12:06.354Z,101772.45
2019-01-11T10:17:11.259Z,101786.64
2019-01-11T10:22:18.095Z,101785.73
2019-01-11T10:27:20.844Z,101797.79
2019-01-11T10:32:23.518Z,101789.73
2019-01-11T10:37:26.204Z,101794.64
2019-01-11T10:42:28.879Z,101797.25
2019-01-11T10:47:31.918Z,101804.42
2019-01-11T10:52:37.156Z,101803.06
2019-01-11T10:57:39.988Z,101796.40
2019-01-11T11:02:42.761Z,101793.19
2019-01-11T11:07:45.664Z,101793.19
2019-01-11T11:12:50.665Z,101793.61
2019-01-11T11:17:53.535Z,101796.75
2019-01-11T11:22:56.932Z,101793.53
2019-01-11T11:28:01.788Z,101793.53
2019-01-11T11:33:11.237Z,101800.63
2019-01-11T11:38:16.469Z,101789.53
2019-01-11T11:43:23.205Z,101788.20
2019-01-11T11:48:25.965Z,101789.93
2019-01-11T11:53:32.728Z,101786.37
2019-01-11T11:58:35.563Z,101779.28
2019-01-11T12:03:40.302Z,101784.62
2019-01-11T12:08:43.004Z,101780.17
2019-01-11T12:13:45.709Z,101780.17
2019-01-11T12:18:50.595Z,101776.61
2019-01-11T12:23:53.268Z,101777.50
2019-01-11T12:28:57.952Z,101774.33
2019-01-11T12:34:01.009Z,101765.31
2019-01-11T12:39:06.734Z,101760.42
2019-01-11T12:44:09.383Z,101761.33
2019-01-11T12:49:12.089Z,101754.72
2019-01-11T12:54:16.924Z,101756.89
2019-01-11T12:59:23.664Z,101750.47
2019-01-11T13:04:26.471Z,101751.87
2019-01-11T13:09:29.139Z,101747.88
2019-01-11T13:14:31.844Z,101741.08
2019-01-11T13:19:34.607Z,101737.08
2019-01-11T13:24:37.616Z,101729.47
2019-01-11T13:29:42.394Z,101725.47
2019-01-11T13:34:47.139Z,101725.89
2019-01-11T13:39:51.879Z,101719.59
2019-01-11T13:44:58.644Z,101715.94
2019-01-11T13:50:01.795Z,101714.97
2019-01-11T13:55:12.696Z,101718.27
2019-01-11T14:00:17.619Z,101713.75
2019-01-11T14:05:22.393Z,101710.77
2019-01-11T14:10:27.273Z,101721.09
2019-01-11T14:15:32.341Z,101724.44
2019-01-11T14:20:35.339Z,101719.62
2019-01-11T14:25:38.202Z,101716.92
2019-01-11T14:30:42.858Z,101724.19
2019-01-11T14:35:47.649Z,101715.28
2019-01-11T14:40:50.428Z,101716.59
2019-01-11T14:45:53.238Z,101711.70
2019-01-11T14:50:58.034Z,101712.97
2019-01-11T14:56:03.168Z,101710.70
2019-01-11T15:01:05.789Z,101716.86
2019-01-11T15:06:10.665Z,101706.98
2019-01-11T15:11:15.376Z,101719.95
2019-01-11T15:16:18.074Z,101722.34
2019-01-11T15:21:22.846Z,101729.36
2019-01-11T15:26:25.701Z,101732.48
2019-01-11T15:31:30.459Z,101731.97
2019-01-11T15:36:33.097Z,101734.20
2019-01-11T15:41:36.029Z,101743.74
2019-01-11T15:46:38.735Z,101740.16
2019-01-11T15:51:41.620Z,101743.78
2019-01-11T15:56:48.443Z,101735.81
2019-01-11T16:01:54.156Z,101735.94
2019-01-11T16:06:58.819Z,101736.31
2019-01-11T16:12:06.428Z,101737.83
2019-01-11T16:17:14.105Z,101740.52
2019-01-11T16:22:21.119Z,101738.34
2019-01-11T16:27:23.839Z,101740.59
2019-01-11T16:32:28.830Z,101739.19
2019-01-11T16:37:31.670Z,101744.97
2019-01-11T16:42:38.839Z,101731.17
2019-01-11T16:47:43.174Z,101734.34
2019-01-11T16:52:46.587Z,101734.81
2019-01-11T16:57:51.589Z,101734.45
2019-01-11T17:02:58.414Z,101742.48
2019-01-11T17:08:03.342Z,101740.68
2019-01-11T17:13:08.174Z,101734.48
2019-01-11T17:18:10.868Z,101737.54
2019-01-11T17:23:17.774Z,101732.21
2019-01-11T17:28:22.728Z,101740.63
2019-01-11T17:33:25.470Z,101742.82
2019-01-11T17:38:30.122Z,101758.77
2019-01-11T17:43:35.010Z,101751.23
2019-01-11T17:48:39.145Z,101747.64
2019-01-11T17:53:44.044Z,101755.66
2019-01-11T17:58:46.889Z,101755.72
2019-01-11T18:03:51.754Z,101762.86
2019-01-11T18:08:54.413Z,101763.80
2019-01-11T18:13:57.100Z,101761.14
2019-01-11T18:18:59.809Z,101767.77
2019-01-11T18:24:04.638Z,101766.43
2019-01-11T18:29:09.694Z,101763.77
2019-01-11T18:34:17.470Z,101766.86
2019-01-11T18:39:20.324Z,101766.43
2019-01-11T18:44:25.072Z,101759.30
2019-01-11T18:49:29.870Z,101765.06
2019-01-11T18:54:32.706Z,101760.15
2019-01-11T18:59:41.725Z,101757.91
2019-01-11T19:04:46.444Z,101755.72
2019-01-11T19:09:49.249Z,101765.56
2019-01-11T19:14:53.979Z,101759.80
2019-01-11T19:19:56.574Z,101760.23
2019-01-11T19:24:59.335Z,101764.27
2019-01-11T19:30:02.099Z,101763.34
2019-01-11T19:35:05.354Z,101752.72
2019-01-11T19:40:13.313Z,101760.23
2019-01-11T19:45:20.328Z,101764.23
2019-01-11T19:50:24.186Z,101767.33
2019-01-11T19:55:28.994Z,101766.90
2019-01-11T20:00:33.888Z,101766.50
2019-01-11T20:05:38.684Z,101755.87
2019-01-11T20:10:41.631Z,101759.03
2019-01-11T20:15:46.418Z,101759.91
2019-01-11T20:20:51.275Z,101757.64
2019-01-11T20:25:56.076Z,101760.27
2019-01-11T20:30:58.873Z,101753.64
2019-01-11T20:36:01.552Z,101751.91
2019-01-11T20:41:04.479Z,101747.48
2019-01-11T20:46:09.528Z,101754.08
2019-01-11T20:51:12.132Z,101750.98
2019-01-11T20:56:18.936Z,101754.57
2019-01-11T21:01:22.359Z,101754.55
2019-01-11T21:06:27.089Z,101760.77
2019-01-11T21:16:42.730Z,101758.91
2019-01-11T21:21:47.494Z,101754.87
2019-01-11T21:26:50.295Z,101754.91
2019-01-11T21:31:55.087Z,101756.10
2019-01-11T21:36:57.844Z,101750.76
2019-01-11T21:42:00.529Z,101756.08
2019-01-11T21:47:03.379Z,101757.48
2019-01-11T21:52:08.015Z,101759.30
2019-01-11T21:57:12.785Z,101770.90
2019-01-11T22:02:19.538Z,101770.94
2019-01-11T22:07:24.274Z,101768.73
2019-01-11T22:12:30.979Z,101766.53
2019-01-11T22:17:33.874Z,101760.30
2019-01-11T22:22:36.479Z,101763.87
2019-01-11T22:27:39.192Z,101756.78
2019-01-11T22:32:41.959Z,101755.87
2019-01-11T22:37:44.670Z,101756.75
2019-01-11T22:42:51.454Z,101754.01
2019-01-11T22:47:56.218Z,101757.14
2019-01-11T22:53:03.093Z,101749.61
2019-01-11T22:58:05.899Z,101741.72
2019-01-11T23:03:19.085Z,101739.97
2019-01-11T23:08:22.034Z,101732.42
2019-01-11T23:13:24.643Z,101735.02
2019-01-11T23:18:30.955Z,101727.44
2019-01-11T23:23:33.642Z,101719.88
2019-01-11T23:28:38.404Z,101704.78
2019-01-11T23:33:41.075Z,101698.13
2019-01-11T23:38:43.714Z,101698.20
2019-01-11T23:43:50.605Z,101683.15
2019-01-11T23:48:55.375Z,101684.48
2019-01-11T23:54:00.079Z,101677.78
2019-01-11T23:59:04.934Z,101676.89
